Nearby METAR Reports

 

KIAD - Wash Dc/Dulles, Virginia, USA
Distance from station: ESE 7mi, 11km
Updated: Mon, 18-Feb-2019 7:52pm EST
Mostly cloudy
Mostly cloudy
 Wind from WNW
Wind: WNW 21 mph , 33 km/h
Temperature: 37°F , 3°C
Wind Chill: 26°F , -3°C
Dew Point: 25°F , -4°C
Humidity: 60%
Barometer: 30.29 inHg , 1025.7 hPa
Clouds: Mostly cloudy
Visibility: 10 miles , 16 km
Cloud details: Mostly cloudy 4500 ft
Mostly cloudy 5500 ft
2019/02/19 00:52 KIAD 190052Z 30018KT 10SM BKN045 BKN055 03/M04 A3029 RMK AO2 SLP260 T00331044
KJYO - Leesburg/Godfrey, Virginia, USA
Distance from station: N 7mi, 12km
Updated: Mon, 18-Feb-2019 1:50pm EST
NOT Current
Overcast
Overcast
 Wind from WNW
Wind: WNW 20 mph , 31 km/h, Gust: 25 mph , 41 km/h
Temperature: 43°F , 6°C
Wind Chill: 34°F , 1°C
Dew Point: 30°F , -1°C
Humidity: 61%
Barometer: 30.06 inHg , 1017.9 hPa
Clouds: Overcast
Visibility: 10 miles , 16 km
Cloud details: Overcast 5000 ft
2019/02/18 18:50 KJYO 181850Z AUTO 30017G22KT 280V340 10SM OVC050 06/M01 A3006 RMK AO2 PWINO
 
KHEF - Manassas Muni, Virginia, USA
Distance from station: S 17mi, 28km
Updated: Mon, 18-Feb-2019 7:56pm EST
Overcast
Overcast
 Wind from NW
Wind: NW 13 mph , 20 km/h, Gust: 21 mph , 33 km/h
Temperature: 39°F , 4°C
Wind Chill: 31°F , -1°C
Dew Point: 27°F , -3°C
Humidity: 61%
Barometer: 30.31 inHg , 1026.4 hPa
Clouds: Overcast
Visibility: 10 miles , 16 km
Cloud details: Overcast 5500 ft
2019/02/19 00:56 KHEF 190056Z 32011G18KT 10SM OVC055 04/M03 A3031 RMK AO2 SLP276 T00391033 PNO $
KGAI - Gaithersburg, Maryland, USA
Distance from station: NE 26mi, 41km
Updated: Mon, 18-Feb-2019 7:56pm EST
Overcast
Overcast
 Wind from NW
Wind: NW 10 mph , 17 km/h, Gust: 21 mph , 33 km/h
Temperature: 36°F , 2°C
Wind Chill: 29°F , -2°C
Dew Point: 21°F , -6°C
Humidity: 56%
Barometer: 30.29 inHg , 1025.7 hPa
Clouds: Overcast
Visibility: 10 miles , 16 km
Cloud details: Overcast 4800 ft
2019/02/19 00:56 KGAI 190056Z AUTO 32009G18KT 10SM OVC048 02/M06 A3029 RMK AO2 SLP289 T00221061 FZRANO
 
KDAA - Fort Belvoir/Dav, Virginia, USA
Distance from station: SE 27mi, 44km
Updated: Mon, 18-Feb-2019 7:56pm EST
Mostly cloudy
Mostly cloudy
 Wind from NW
Wind: NW 20 mph , 31 km/h, Gust: 24 mph , 39 km/h
Temperature: 41°F , 5°C
Wind Chill: 32°F , 0°C
Dew Point: 21°F , -6°C
Humidity: 45%
Barometer: 30.29 inHg , 1025.7 hPa
Clouds: Mostly cloudy
Visibility: 10 miles , 16 km
Cloud details: Mostly cloudy 6000 ft
2019/02/19 00:56 KDAA 190056Z AUTO 31017G21KT 10SM BKN060 05/M06 A3029 RMK AO2 SLP261 T00481056 $
KHWY - Warrenton, Virginia, USA
Distance from station: SSW 27mi, 44km
Updated: Mon, 18-Feb-2019 8:35pm EST
Overcast
Overcast
 Wind from NNW
Wind: NNW 12 mph , 19 km/h
Temperature: 41°F , 5°C
Wind Chill: 34°F , 1°C
Dew Point: 21°F , -6°C
Humidity: 45%
Barometer: 30.32 inHg , 1026.8 hPa
Clouds: Overcast
Visibility: 10 miles , 16 km
Cloud details: Overcast 5000 ft
2019/02/19 01:35 KHWY 190135Z AUTO 33010KT 10SM OVC050 05/M06 A3032 RMK AO2 T00461062
 
KDCA - Washington/Natl, Washington D.c., USA
Distance from station: ESE 30mi, 48km
Updated: Mon, 18-Feb-2019 7:52pm EST
Overcast
Overcast
 Wind from NNW
Wind: NNW 20 mph , 31 km/h, Gust: 26 mph , 43 km/h
Temperature: 43°F , 6°C
Wind Chill: 34°F , 1°C
Dew Point: 23°F , -5°C
Humidity: 46%
Barometer: 30.29 inHg , 1025.7 hPa
Clouds: Overcast
Visibility: 10 miles , 16 km
Cloud details: Overcast 6500 ft
2019/02/19 00:52 KDCA 190052Z 33017G23KT 10SM OVC065 06/M05 A3029 RMK AO2 SLP257 T00561050
KFDK - Frederick, Maryland, USA
Distance from station: NNE 33mi, 53km
Updated: Mon, 18-Feb-2019 7:47pm EST
Overcast
Overcast
 Wind from NNW
Wind: NNW 10 mph , 17 km/h, Gust: 17 mph , 28 km/h
Temperature: 37°F , 3°C
Wind Chill: 30°F , -1°C
Dew Point: 25°F , -4°C
Humidity: 60%
Barometer: 30.33 inHg , 1027.1 hPa
Clouds: Overcast
Visibility: 10 miles , 16 km
Cloud details: Overcast 5000 ft
2019/02/19 00:47 KFDK 190047Z 34009G15KT 10SM OVC050 03/M04 A3033
 
KOKV - Winchester Rgnl, Virginia, USA
Distance from station: WNW 33mi, 54km
Updated: Mon, 18-Feb-2019 8:35pm EST
Overcast
Overcast
 Wind from NW
Wind: NW 22 mph , 35 km/h, Gust: 25 mph , 41 km/h
Temperature: 34°F , 1°C
Wind Chill: 22°F , -6°C
Dew Point: 23°F , -5°C
Humidity: 65%
Barometer: 30.32 inHg , 1026.8 hPa
Clouds: Overcast
Visibility: 10 miles , 16 km
Cloud details: Overcast 4100 ft
2019/02/19 01:35 KOKV 190135Z AUTO 31019G22KT 10SM OVC041 01/M05 A3032 RMK AO2
KCJR - Culpeper, Virginia, USA
Distance from station: SSW 34mi, 54km
Updated: Mon, 18-Feb-2019 8:35pm EST
Partly cloudy
Partly cloudy
 Wind from NNW
Wind: NNW 5 mph , 7 km/h
Temperature: 41°F , 5°C
Wind Chill: 38°F , 3°C
Dew Point: 21°F , -6°C
Humidity: 45%
Barometer: 30.32 inHg , 1026.8 hPa
Clouds: Partly cloudy
Visibility: 10 miles , 16 km
Cloud details: Partly cloudy 5500 ft
2019/02/19 01:35 KCJR 190135Z AUTO 33004KT 10SM SCT055 05/M06 A3032 RMK AO2 T00471065
 
KCGS - College Park, Maryland, USA
Distance from station: E 35mi, 56km
Updated: Mon, 18-Feb-2019 8:23pm EST
Overcast
Overcast
 Wind from NNW
Wind: NNW 6 mph , 9 km/h, Gust: 10 mph , 17 km/h
Temperature: 39°F , 4°C
Wind Chill: 35°F , 2°C
Dew Point: 21°F , -6°C
Humidity: 48%
Barometer: 30.30 inHg , 1026.1 hPa
Clouds: Overcast
Visibility: 10 miles , 16 km
Cloud details: Overcast 5000 ft
2019/02/19 01:23 KCGS 190123Z AUTO 33005G09KT 10SM OVC050 04/M06 A3030 RMK AO1 T00351063
KNYG - Quantico Mcaf, Virginia, USA
Distance from station: SSE 35mi, 57km
Updated: Mon, 18-Feb-2019 7:56pm EST
Partly cloudy
Partly cloudy
 Wind from N
Wind: N 10 mph , 17 km/h
Temperature: 43°F , 6°C
Wind Chill: 37°F , 3°C
Dew Point: 27°F , -3°C
Humidity: 53%
Barometer: 30.31 inHg , 1026.4 hPa
Clouds: Partly cloudy
Visibility: 10 miles , 16 km
Cloud details: Partly cloudy 6000 ft
2019/02/19 00:56 KNYG 190056Z AUTO 01009KT 10SM SCT060 06/M03 A3031 RMK AO2 SLP263 T00561033 $
 
KFRR - Fort Royal, Virginia, USA
Distance from station: W 37mi, 59km
Updated: Mon, 18-Feb-2019 8:35pm EST
Overcast
Overcast
 Wind from NNE
Wind: NNE 7 mph , 11 km/h
Temperature: 36°F , 2°C
Wind Chill: 30°F , -1°C
Dew Point: 23°F , -5°C
Humidity: 60%
Barometer: 30.30 inHg , 1026.1 hPa
Clouds: Overcast
Visibility: 10 miles , 16 km
Cloud details: Overcast 4000 ft
2019/02/19 01:35 KFRR 190135Z AUTO 02006KT 10SM OVC040 02/M05 A3030 RMK AO1
KMRB - Martinsburg, West Virginia, USA
Distance from station: NW 38mi, 61km
Updated: Mon, 18-Feb-2019 7:53pm EST
Overcast
Overcast
 Wind from NNW
Wind: NNW 12 mph , 19 km/h
Temperature: 36°F , 2°C
Wind Chill: 28°F , -2°C
Dew Point: 21°F , -6°C
Humidity: 56%
Barometer: 30.30 inHg , 1026.1 hPa
Clouds: Overcast
Visibility: 10 miles , 16 km
Cloud details: Overcast 4500 ft
2019/02/19 00:53 KMRB 190053Z 33010KT 10SM OVC045 02/M06 A3030 RMK AO2 SLP265 T00221061
 
KADW - Andrews Afb, Maryland, USA
Distance from station: ESE 39mi, 63km
Updated: Mon, 18-Feb-2019 7:56pm EST
Mostly cloudy
Mostly cloudy
 Wind from NW
Wind: NW 16 mph , 26 km/h, Gust: 24 mph , 39 km/h
Temperature: 39°F , 4°C
Wind Chill: 30°F , -1°C
Dew Point: 23°F , -5°C
Humidity: 52%
Barometer: 30.26 inHg , 1024.7 hPa
Clouds: Mostly cloudy
Visibility: 10 miles , 16 km
Cloud details: Mostly cloudy 5000 ft
2019/02/19 00:56 KADW 190056Z AUTO 31014G21KT 10SM BKN050 04/M05 A3026 RMK AO2 SLP256 T00381052 $
KRMN - Stafford Regnl, Virginia, USA
Distance from station: S 39mi, 63km
Updated: Mon, 18-Feb-2019 8:35pm EST
Partly cloudy
Partly cloudy
 Wind from NW
Wind: NW 12 mph , 19 km/h, Gust: 17 mph , 28 km/h
Temperature: 41°F , 5°C
Wind Chill: 34°F , 1°C
Dew Point: 27°F , -3°C
Humidity: 57%
Barometer: 30.36 inHg , 1028.1 hPa
Clouds: Partly cloudy
Visibility: 10 miles , 16 km
Cloud details: Partly cloudy 6000 ft
2019/02/19 01:35 KRMN 190135Z AUTO 32010G15KT 10SM SCT060 05/M03 A3036 RMK AO2 T00461033
 
KFME - Fort Meade, Maryland, USA
Distance from station: ENE 44mi, 70km
Updated: Mon, 18-Feb-2019 8:21pm EST
Overcast
Overcast
 Wind from NNW
Wind: NNW 8 mph , 13 km/h
Temperature: 37°F , 3°C
Wind Chill: 31°F , -1°C
Dew Point: 25°F , -4°C
Humidity: 60%
Barometer: 30.33 inHg , 1027.1 hPa
Clouds: Overcast
Visibility: 10 miles , 16 km
Cloud details: Overcast 6000 ft
2019/02/19 01:21 KFME 190121Z AUTO 34007KT 10SM OVC060 03/M04 A3033 RMK AO1
KRSP - Nsf Thurmont, Maryland, USA
Distance from station: N 48mi, 77km
Updated: Mon, 18-Feb-2019 8:28pm EST
Overcast
Overcast
 Wind from NNW
Wind: NNW 17 mph , 28 km/h, Gust: 31 mph , 50 km/h
Temperature: 27°F , -3°C
Wind Chill: 14°F , -10°C
Dew Point: 19°F , -7°C
Humidity: 74%
Barometer: 30.21 inHg , 1023 hPa
Clouds: Overcast
Visibility: 10 miles , 16 km
Cloud details: Overcast 3200 ft
2019/02/19 01:28 KRSP 190128Z AUTO 33015G27KT 10SM OVC032 M03/M07 A3021 RMK AO2 PK WND 33031/0114 $
 
KEZF - Fredericksb/Shan, Virginia, USA
Distance from station: S 48mi, 78km
Updated: Mon, 18-Feb-2019 8:35pm EST
Partly cloudy
Partly cloudy
 Wind from NNW
Wind: NNW 12 mph , 19 km/h, Gust: 18 mph , 30 km/h
Temperature: 43°F , 6°C
Wind Chill: 37°F , 3°C
Dew Point: 27°F , -3°C
Humidity: 53%
Barometer: 30.31 inHg , 1026.4 hPa
Clouds: Partly cloudy
Visibility: 10 miles , 16 km
Cloud details: Partly cloudy 6000 ft
2019/02/19 01:35 KEZF 190135Z AUTO 33010G16KT 10SM SCT060 06/M03 A3031 RMK AO2 T00551035
KBWI - Balto/Wash Intl, Maryland, USA
Distance from station: ENE 49mi, 80km
Updated: Mon, 18-Feb-2019 7:54pm EST
Mostly cloudy
Mostly cloudy
 Wind from WNW
Wind: WNW 9 mph , 15 km/h
Temperature: 37°F , 3°C
Wind Chill: 30°F , -1°C
Dew Point: 21°F , -6°C
Humidity: 52%
Barometer: 30.28 inHg , 1025.4 hPa
Clouds: Mostly cloudy
Visibility: 10 miles , 16 km
Cloud details: Mostly cloudy 6000 ft
2019/02/19 00:54 KBWI 190054Z 30008KT 10SM BKN060 03/M06 A3028 RMK AO2 SLP255 T00331056